METAR Formatted Surface Weather Observation
Issued by NWS

Home | Current Version | Previous Version | Text Only | Print | Product List | Glossary On
Versions: 1
000
SAUS46 KSGX 022352
MTRSAN
METAR KSAN 022351Z 29008KT 10SM FEW014 24/17 A2995 RMK AO2 SLP141
T02390172 10261 20228 58008 $



USA.gov is the U.S. government's official web portal to all federal, state and local government web resources and services.